sensor_id;sensor_type;location;lat;lon;timestamp;P1;durP1;ratioP1;P2;durP2;ratioP2
20997;SDS011;10657;51.276;6.390;2024-03-23T00:54:37;6.90;;;2.05;;
20997;SDS011;10657;51.276;6.390;2024-03-23T00:57:03;7.60;;;1.85;;
20997;SDS011;10657;51.276;6.390;2024-03-23T00:59:29;7.55;;;1.60;;
20997;SDS011;10657;51.276;6.390;2024-03-23T01:01:59;7.95;;;2.08;;
20997;SDS011;10657;51.276;6.390;2024-03-23T01:04:25;6.35;;;1.50;;
20997;SDS011;10657;51.276;6.390;2024-03-23T01:06:50;7.55;;;1.45;;
20997;SDS011;10657;51.276;6.390;2024-03-23T01:09:16;5.18;;;1.50;;
20997;SDS011;10657;51.276;6.390;2024-03-23T01:11:42;5.97;;;1.40;;
20997;SDS011;10657;51.276;6.390;2024-03-23T01:14:11;6.60;;;1.80;;
20997;SDS011;10657;51.276;6.390;2024-03-23T01:16:36;5.65;;;1.38;;
20997;SDS011;10657;51.276;6.390;2024-03-23T01:19:02;5.13;;;1.50;;
20997;SDS011;10657;51.276;6.390;2024-03-23T01:21:28;5.82;;;1.45;;
20997;SDS011;10657;51.276;6.390;2024-03-23T01:23:54;8.10;;;1.70;;
20997;SDS011;10657;51.276;6.390;2024-03-23T01:26:19;5.32;;;1.25;;
20997;SDS011;10657;51.276;6.390;2024-03-23T01:28:45;5.28;;;1.38;;
20997;SDS011;10657;51.276;6.390;2024-03-23T01:31:11;7.45;;;1.52;;
20997;SDS011;10657;51.276;6.390;2024-03-23T01:33:37;5.63;;;1.45;;
20997;SDS011;10657;51.276;6.390;2024-03-23T01:36:03;6.63;;;1.73;;
20997;SDS011;10657;51.276;6.390;2024-03-23T01:38:29;8.13;;;1.95;;
20997;SDS011;10657;51.276;6.390;2024-03-23T01:40:57;6.25;;;1.25;;
20997;SDS011;10657;51.276;6.390;2024-03-23T01:43:26;7.18;;;1.90;;
20997;SDS011;10657;51.276;6.390;2024-03-23T01:45:52;4.97;;;1.55;;
20997;SDS011;10657;51.276;6.390;2024-03-23T01:48:20;4.60;;;1.48;;
20997;SDS011;10657;51.276;6.390;2024-03-23T01:50:46;6.38;;;1.50;;
20997;SDS011;10657;51.276;6.390;2024-03-23T01:53:13;5.45;;;1.45;;
20997;SDS011;10657;51.276;6.390;2024-03-23T01:55:42;6.38;;;1.55;;
20997;SDS011;10657;51.276;6.390;2024-03-23T01:58:08;6.15;;;1.60;;
20997;SDS011;10657;51.276;6.390;2024-03-23T02:00:34;6.93;;;1.70;;
20997;SDS011;10657;51.276;6.390;2024-03-23T02:03:00;5.57;;;1.63;;
20997;SDS011;10657;51.276;6.390;2024-03-23T02:05:26;4.80;;;1.20;;
20997;SDS011;10657;51.276;6.390;2024-03-23T02:07:52;7.35;;;1.73;;
20997;SDS011;10657;51.276;6.390;2024-03-23T02:10:18;6.13;;;1.38;;
20997;SDS011;10657;51.276;6.390;2024-03-23T02:12:44;6.50;;;1.42;;
20997;SDS011;10657;51.276;6.390;2024-03-23T02:15:10;7.97;;;1.92;;
20997;SDS011;10657;51.276;6.390;2024-03-23T02:17:35;7.60;;;1.80;;
20997;SDS011;10657;51.276;6.390;2024-03-23T02:20:02;4.97;;;1.50;;
20997;SDS011;10657;51.276;6.390;2024-03-23T02:22:37;6.93;;;2.03;;
20997;SDS011;10657;51.276;6.390;2024-03-23T02:25:04;9.48;;;2.63;;
20997;SDS011;10657;51.276;6.390;2024-03-23T02:27:31;7.88;;;1.73;;
20997;SDS011;10657;51.276;6.390;2024-03-23T02:29:57;6.70;;;1.92;;
20997;SDS011;10657;51.276;6.390;2024-03-23T02:32:23;7.75;;;2.17;;
20997;SDS011;10657;51.276;6.390;2024-03-23T02:34:48;5.88;;;1.70;;
20997;SDS011;10657;51.276;6.390;2024-03-23T02:37:14;5.63;;;1.52;;
20997;SDS011;10657;51.276;6.390;2024-03-23T02:39:40;7.65;;;1.90;;
20997;SDS011;10657;51.276;6.390;2024-03-23T02:42:09;7.30;;;1.55;;
20997;SDS011;10657;51.276;6.390;2024-03-23T02:44:34;4.60;;;1.45;;
20997;SDS011;10657;51.276;6.390;2024-03-23T02:47:00;7.65;;;1.60;;
20997;SDS011;10657;51.276;6.390;2024-03-23T02:49:26;7.32;;;1.70;;
20997;SDS011;10657;51.276;6.390;2024-03-23T02:51:52;5.50;;;1.50;;
20997;SDS011;10657;51.276;6.390;2024-03-23T02:54:18;4.38;;;1.17;;
20997;SDS011;10657;51.276;6.390;2024-03-23T02:56:44;5.82;;;1.45;;
20997;SDS011;10657;51.276;6.390;2024-03-23T02:59:09;9.35;;;1.80;;
20997;SDS011;10657;51.276;6.390;2024-03-23T03:01:35;8.88;;;1.83;;
20997;SDS011;10657;51.276;6.390;2024-03-23T03:04:01;6.35;;;1.92;;
20997;SDS011;10657;51.276;6.390;2024-03-23T03:06:27;5.60;;;1.63;;
20997;SDS011;10657;51.276;6.390;2024-03-23T03:08:56;7.97;;;1.67;;
20997;SDS011;10657;51.276;6.390;2024-03-23T03:11:21;7.40;;;1.77;;
20997;SDS011;10657;51.276;6.390;2024-03-23T03:13:47;7.55;;;2.33;;
20997;SDS011;10657;51.276;6.390;2024-03-23T03:16:13;6.38;;;1.83;;
20997;SDS011;10657;51.276;6.390;2024-03-23T03:18:39;5.93;;;1.45;;
20997;SDS011;10657;51.276;6.390;2024-03-23T03:21:08;6.43;;;1.60;;
20997;SDS011;10657;51.276;6.390;2024-03-23T03:23:38;5.88;;;1.50;;
20997;SDS011;10657;51.276;6.390;2024-03-23T03:26:04;7.93;;;1.90;;
20997;SDS011;10657;51.276;6.390;2024-03-23T03:28:33;7.70;;;1.88;;
20997;SDS011;10657;51.276;6.390;2024-03-23T03:31:00;8.32;;;1.65;;
20997;SDS011;10657;51.276;6.390;2024-03-23T03:33:26;10.48;;;1.70;;
20997;SDS011;10657;51.276;6.390;2024-03-23T03:35:53;7.88;;;2.22;;
20997;SDS011;10657;51.276;6.390;2024-03-23T03:38:19;10.88;;;2.08;;
20997;SDS011;10657;51.276;6.390;2024-03-23T03:40:45;6.13;;;1.55;;
20997;SDS011;10657;51.276;6.390;2024-03-23T03:43:11;5.13;;;1.20;;
20997;SDS011;10657;51.276;6.390;2024-03-23T03:45:37;10.98;;;2.47;;
20997;SDS011;10657;51.276;6.390;2024-03-23T03:48:03;13.30;;;2.10;;
20997;SDS011;10657;51.276;6.390;2024-03-23T03:50:29;10.10;;;2.50;;
20997;SDS011;10657;51.276;6.390;2024-03-23T03:52:55;8.93;;;2.20;;
20997;SDS011;10657;51.276;6.390;2024-03-23T03:55:21;11.18;;;2.38;;
20997;SDS011;10657;51.276;6.390;2024-03-23T03:57:47;9.98;;;2.70;;
20997;SDS011;10657;51.276;6.390;2024-03-23T04:00:13;10.90;;;2.53;;
20997;SDS011;10657;51.276;6.390;2024-03-23T04:02:39;11.50;;;2.60;;
20997;SDS011;10657;51.276;6.390;2024-03-23T04:05:07;8.77;;;2.33;;
20997;SDS011;10657;51.276;6.390;2024-03-23T04:07:33;9.60;;;2.83;;
20997;SDS011;10657;51.276;6.390;2024-03-23T04:09:59;11.23;;;2.63;;
20997;SDS011;10657;51.276;6.390;2024-03-23T04:12:32;13.10;;;2.63;;
20997;SDS011;10657;51.276;6.390;2024-03-23T04:14:58;11.48;;;2.63;;
20997;SDS011;10657;51.276;6.390;2024-03-23T04:17:24;11.02;;;3.60;;
20997;SDS011;10657;51.276;6.390;2024-03-23T04:19:50;9.82;;;3.40;;
20997;SDS011;10657;51.276;6.390;2024-03-23T04:22:17;9.48;;;2.90;;
20997;SDS011;10657;51.276;6.390;2024-03-23T04:24:43;9.93;;;2.85;;
20997;SDS011;10657;51.276;6.390;2024-03-23T04:27:09;11.18;;;3.15;;
20997;SDS011;10657;51.276;6.390;2024-03-23T04:29:34;8.43;;;3.03;;
20997;SDS011;10657;51.276;6.390;2024-03-23T04:32:00;8.95;;;2.92;;
20997;SDS011;10657;51.276;6.390;2024-03-23T04:34:26;10.55;;;2.60;;
20997;SDS011;10657;51.276;6.390;2024-03-23T04:36:52;9.15;;;2.45;;
20997;SDS011;10657;51.276;6.390;2024-03-23T04:39:18;8.18;;;2.38;;
20997;SDS011;10657;51.276;6.390;2024-03-23T04:41:44;11.18;;;3.05;;
20997;SDS011;10657;51.276;6.390;2024-03-23T04:44:10;11.52;;;3.45;;
20997;SDS011;10657;51.276;6.390;2024-03-23T04:46:36;10.02;;;2.75;;
20997;SDS011;10657;51.276;6.390;2024-03-23T04:49:02;9.93;;;2.90;;
20997;SDS011;10657;51.276;6.390;2024-03-23T04:51:34;9.30;;;2.72;;
20997;SDS011;10657;51.276;6.390;2024-03-23T04:54:03;11.85;;;3.42;;
20997;SDS011;10657;51.276;6.390;2024-03-23T04:56:30;8.80;;;2.92;;
20997;SDS011;10657;51.276;6.390;2024-03-23T04:58:57;9.98;;;2.95;;
20997;SDS011;10657;51.276;6.390;2024-03-23T05:01:26;10.88;;;2.95;;
20997;SDS011;10657;51.276;6.390;2024-03-23T05:03:53;10.40;;;3.33;;
20997;SDS011;10657;51.276;6.390;2024-03-23T05:06:18;11.82;;;3.78;;
20997;SDS011;10657;51.276;6.390;2024-03-23T05:08:44;10.20;;;3.45;;
20997;SDS011;10657;51.276;6.390;2024-03-23T05:11:11;10.95;;;3.95;;
20997;SDS011;10657;51.276;6.390;2024-03-23T05:13:37;11.45;;;3.88;;
20997;SDS011;10657;51.276;6.390;2024-03-23T05:16:03;11.05;;;3.40;;
20997;SDS011;10657;51.276;6.390;2024-03-23T05:18:29;11.43;;;4.05;;
20997;SDS011;10657;51.276;6.390;2024-03-23T05:20:56;11.63;;;3.92;;
20997;SDS011;10657;51.276;6.390;2024-03-23T05:23:23;13.73;;;3.88;;
20997;SDS011;10657;51.276;6.390;2024-03-23T05:25:53;14.38;;;4.57;;
20997;SDS011;10657;51.276;6.390;2024-03-23T05:28:20;12.90;;;5.10;;
20997;SDS011;10657;51.276;6.390;2024-03-23T05:30:53;10.57;;;4.38;;
20997;SDS011;10657;51.276;6.390;2024-03-23T05:33:19;13.98;;;5.22;;
20997;SDS011;10657;51.276;6.390;2024-03-23T05:35:45;12.57;;;4.90;;
20997;SDS011;10657;51.276;6.390;2024-03-23T05:38:16;11.70;;;4.82;;
20997;SDS011;10657;51.276;6.390;2024-03-23T05:40:41;17.45;;;5.15;;
20997;SDS011;10657;51.276;6.390;2024-03-23T05:43:27;14.20;;;4.75;;
20997;SDS011;10657;51.276;6.390;2024-03-23T05:45:54;13.85;;;4.82;;
20997;SDS011;10657;51.276;6.390;2024-03-23T05:48:24;10.10;;;3.90;;
20997;SDS011;10657;51.276;6.390;2024-03-23T05:50:51;10.95;;;3.95;;
20997;SDS011;10657;51.276;6.390;2024-03-23T05:53:18;12.52;;;4.20;;
20997;SDS011;10657;51.276;6.390;2024-03-23T05:55:47;11.50;;;3.92;;
20997;SDS011;10657;51.276;6.390;2024-03-23T05:58:14;13.32;;;3.90;;
20997;SDS011;10657;51.276;6.390;2024-03-23T06:00:40;10.25;;;3.65;;
20997;SDS011;10657;51.276;6.390;2024-03-23T06:03:09;12.38;;;4.03;;
20997;SDS011;10657;51.276;6.390;2024-03-23T06:05:38;10.90;;;3.35;;
20997;SDS011;10657;51.276;6.390;2024-03-23T06:08:05;12.13;;;3.78;;
20997;SDS011;10657;51.276;6.390;2024-03-23T06:10:31;14.60;;;3.83;;
20997;SDS011;10657;51.276;6.390;2024-03-23T06:12:57;12.20;;;3.70;;
20997;SDS011;10657;51.276;6.390;2024-03-23T06:15:24;11.27;;;3.47;;
20997;SDS011;10657;51.276;6.390;2024-03-23T06:17:50;13.65;;;4.10;;
20997;SDS011;10657;51.276;6.390;2024-03-23T06:20:16;13.55;;;4.05;;
20997;SDS011;10657;51.276;6.390;2024-03-23T06:22:42;12.73;;;4.50;;
20997;SDS011;10657;51.276;6.390;2024-03-23T06:25:08;14.40;;;4.25;;
20997;SDS011;10657;51.276;6.390;2024-03-23T06:27:33;14.70;;;4.32;;
20997;SDS011;10657;51.276;6.390;2024-03-23T06:29:59;10.80;;;3.58;;
20997;SDS011;10657;51.276;6.390;2024-03-23T06:32:25;13.80;;;4.60;;
20997;SDS011;10657;51.276;6.390;2024-03-23T06:34:52;15.05;;;4.28;;
20997;SDS011;10657;51.276;6.390;2024-03-23T06:37:18;11.63;;;4.35;;
20997;SDS011;10657;51.276;6.390;2024-03-23T06:39:45;15.35;;;4.70;;
20997;SDS011;10657;51.276;6.390;2024-03-23T06:42:12;12.27;;;4.35;;
20997;SDS011;10657;51.276;6.390;2024-03-23T06:44:38;11.27;;;4.25;;
20997;SDS011;10657;51.276;6.390;2024-03-23T06:47:07;12.05;;;4.25;;
20997;SDS011;10657;51.276;6.390;2024-03-23T06:49:33;15.30;;;4.75;;
20997;SDS011;10657;51.276;6.390;2024-03-23T06:51:58;16.73;;;4.82;;
20997;SDS011;10657;51.276;6.390;2024-03-23T06:54:24;13.45;;;4.40;;
20997;SDS011;10657;51.276;6.390;2024-03-23T06:56:51;11.75;;;4.20;;
20997;SDS011;10657;51.276;6.390;2024-03-23T06:59:19;14.70;;;5.15;;
20997;SDS011;10657;51.276;6.390;2024-03-23T07:01:45;17.00;;;4.95;;
20997;SDS011;10657;51.276;6.390;2024-03-23T07:04:11;10.43;;;3.90;;
20997;SDS011;10657;51.276;6.390;2024-03-23T07:06:43;12.15;;;4.60;;
20997;SDS011;10657;51.276;6.390;2024-03-23T07:09:10;13.32;;;4.57;;
20997;SDS011;10657;51.276;6.390;2024-03-23T07:11:36;15.90;;;4.88;;
20997;SDS011;10657;51.276;6.390;2024-03-23T07:14:01;14.82;;;4.55;;
20997;SDS011;10657;51.276;6.390;2024-03-23T07:16:30;14.93;;;4.55;;
20997;SDS011;10657;51.276;6.390;2024-03-23T07:18:59;12.00;;;3.78;;
20997;SDS011;10657;51.276;6.390;2024-03-23T07:21:24;12.82;;;4.72;;
20997;SDS011;10657;51.276;6.390;2024-03-23T07:23:50;15.70;;;4.95;;
20997;SDS011;10657;51.276;6.390;2024-03-23T07:26:16;16.55;;;5.15;;
20997;SDS011;10657;51.276;6.390;2024-03-23T07:28:43;12.38;;;5.15;;
20997;SDS011;10657;51.276;6.390;2024-03-23T07:31:10;15.85;;;5.40;;
20997;SDS011;10657;51.276;6.390;2024-03-23T07:33:41;15.80;;;4.47;;
20997;SDS011;10657;51.276;6.390;2024-03-23T07:36:08;10.40;;;4.43;;
20997;SDS011;10657;51.276;6.390;2024-03-23T07:38:34;11.45;;;4.13;;
20997;SDS011;10657;51.276;6.390;2024-03-23T07:41:06;12.85;;;4.85;;
20997;SDS011;10657;51.276;6.390;2024-03-23T07:43:34;11.30;;;4.40;;
20997;SDS011;10657;51.276;6.390;2024-03-23T07:46:00;16.15;;;4.50;;
20997;SDS011;10657;51.276;6.390;2024-03-23T07:48:29;11.68;;;4.32;;
20997;SDS011;10657;51.276;6.390;2024-03-23T07:51:03;14.23;;;3.88;;
20997;SDS011;10657;51.276;6.390;2024-03-23T07:53:32;14.70;;;4.30;;
20997;SDS011;10657;51.276;6.390;2024-03-23T07:56:00;13.63;;;4.55;;
20997;SDS011;10657;51.276;6.390;2024-03-23T07:58:28;11.77;;;4.15;;
20997;SDS011;10657;51.276;6.390;2024-03-23T08:00:54;11.80;;;3.88;;
20997;SDS011;10657;51.276;6.390;2024-03-23T08:03:24;11.48;;;3.28;;
20997;SDS011;10657;51.276;6.390;2024-03-23T08:05:50;10.02;;;3.60;;
20997;SDS011;10657;51.276;6.390;2024-03-23T08:08:18;10.73;;;3.20;;
20997;SDS011;10657;51.276;6.390;2024-03-23T08:10:48;12.90;;;3.50;;
20997;SDS011;10657;51.276;6.390;2024-03-23T08:13:14;12.93;;;3.30;;
20997;SDS011;10657;51.276;6.390;2024-03-23T08:15:40;12.30;;;3.30;;
20997;SDS011;10657;51.276;6.390;2024-03-23T08:18:06;12.07;;;3.33;;
20997;SDS011;10657;51.276;6.390;2024-03-23T08:20:32;10.48;;;2.92;;
20997;SDS011;10657;51.276;6.390;2024-03-23T08:22:58;12.32;;;3.20;;
20997;SDS011;10657;51.276;6.390;2024-03-23T08:25:23;15.23;;;4.07;;
20997;SDS011;10657;51.276;6.390;2024-03-23T08:27:49;12.75;;;3.30;;
20997;SDS011;10657;51.276;6.390;2024-03-23T08:30:15;11.45;;;3.55;;
20997;SDS011;10657;51.276;6.390;2024-03-23T08:32:44;13.02;;;2.95;;
20997;SDS011;10657;51.276;6.390;2024-03-23T08:35:11;13.02;;;3.20;;
20997;SDS011;10657;51.276;6.390;2024-03-23T08:37:37;12.82;;;3.90;;
20997;SDS011;10657;51.276;6.390;2024-03-23T08:40:02;11.18;;;2.72;;
20997;SDS011;10657;51.276;6.390;2024-03-23T08:42:30;13.23;;;3.65;;
20997;SDS011;10657;51.276;6.390;2024-03-23T08:44:56;12.60;;;3.45;;
20997;SDS011;10657;51.276;6.390;2024-03-23T08:47:21;11.07;;;3.67;;
20997;SDS011;10657;51.276;6.390;2024-03-23T08:49:48;11.70;;;3.00;;
20997;SDS011;10657;51.276;6.390;2024-03-23T08:52:13;10.43;;;2.63;;
20997;SDS011;10657;51.276;6.390;2024-03-23T08:54:39;14.25;;;3.53;;
20997;SDS011;10657;51.276;6.390;2024-03-23T08:57:05;14.27;;;4.13;;
20997;SDS011;10657;51.276;6.390;2024-03-23T08:59:37;12.00;;;3.00;;
20997;SDS011;10657;51.276;6.390;2024-03-23T09:02:03;13.13;;;3.58;;
20997;SDS011;10657;51.276;6.390;2024-03-23T09:04:29;10.38;;;3.15;;
20997;SDS011;10657;51.276;6.390;2024-03-23T09:06:56;17.02;;;4.95;;
20997;SDS011;10657;51.276;6.390;2024-03-23T09:09:24;16.58;;;4.05;;
20997;SDS011;10657;51.276;6.390;2024-03-23T09:11:50;11.60;;;3.95;;
20997;SDS011;10657;51.276;6.390;2024-03-23T09:14:15;12.85;;;3.83;;
20997;SDS011;10657;51.276;6.390;2024-03-23T09:16:41;12.88;;;4.30;;
20997;SDS011;10657;51.276;6.390;2024-03-23T09:19:07;10.88;;;3.60;;
20997;SDS011;10657;51.276;6.390;2024-03-23T09:21:33;11.60;;;3.88;;
20997;SDS011;10657;51.276;6.390;2024-03-23T09:23:59;12.32;;;3.17;;
20997;SDS011;10657;51.276;6.390;2024-03-23T09:26:24;10.23;;;3.28;;
20997;SDS011;10657;51.276;6.390;2024-03-23T09:28:50;14.60;;;3.35;;
20997;SDS011;10657;51.276;6.390;2024-03-23T09:31:16;9.70;;;3.13;;
20997;SDS011;10657;51.276;6.390;2024-03-23T09:33:43;10.13;;;2.88;;
20997;SDS011;10657;51.276;6.390;2024-03-23T09:36:09;11.48;;;2.97;;
20997;SDS011;10657;51.276;6.390;2024-03-23T09:38:35;12.02;;;4.35;;
20997;SDS011;10657;51.276;6.390;2024-03-23T09:41:06;12.80;;;3.05;;
20997;SDS011;10657;51.276;6.390;2024-03-23T09:43:33;10.15;;;2.72;;
20997;SDS011;10657;51.276;6.390;2024-03-23T09:45:59;10.63;;;2.80;;
20997;SDS011;10657;51.276;6.390;2024-03-23T09:48:29;11.00;;;2.53;;
20997;SDS011;10657;51.276;6.390;2024-03-23T09:50:55;9.32;;;2.72;;
20997;SDS011;10657;51.276;6.390;2024-03-23T09:53:21;13.23;;;3.10;;
20997;SDS011;10657;51.276;6.390;2024-03-23T09:55:47;12.32;;;2.45;;
20997;SDS011;10657;51.276;6.390;2024-03-23T09:58:15;10.48;;;2.13;;
20997;SDS011;10657;51.276;6.390;2024-03-23T10:00:41;8.32;;;2.20;;
20997;SDS011;10657;51.276;6.390;2024-03-23T10:03:07;10.18;;;2.75;;
20997;SDS011;10657;51.276;6.390;2024-03-23T10:05:36;9.27;;;2.20;;
20997;SDS011;10657;51.276;6.390;2024-03-23T10:10:43;8.77;;;1.83;;
20997;SDS011;10657;51.276;6.390;2024-03-23T10:13:25;5.88;;;1.40;;
20997;SDS011;10657;51.276;6.390;2024-03-23T10:15:57;6.35;;;1.58;;
20997;SDS011;10657;51.276;6.390;2024-03-23T10:18:24;5.38;;;1.40;;
20997;SDS011;10657;51.276;6.390;2024-03-23T10:20:51;5.32;;;1.17;;
20997;SDS011;10657;51.276;6.390;2024-03-23T10:23:38;2.95;;;0.63;;
20997;SDS011;10657;51.276;6.390;2024-03-23T10:26:16;7.35;;;0.63;;
20997;SDS011;10657;51.276;6.390;2024-03-23T10:31:30;2.42;;;0.70;;
20997;SDS011;10657;51.276;6.390;2024-03-23T10:33:56;3.67;;;0.70;;
20997;SDS011;10657;51.276;6.390;2024-03-23T10:36:23;3.65;;;0.90;;
20997;SDS011;10657;51.276;6.390;2024-03-23T10:38:51;3.70;;;0.80;;
20997;SDS011;10657;51.276;6.390;2024-03-23T10:41:17;2.78;;;0.70;;
20997;SDS011;10657;51.276;6.390;2024-03-23T10:43:47;3.85;;;0.73;;
20997;SDS011;10657;51.276;6.390;2024-03-23T10:46:14;6.85;;;1.27;;
20997;SDS011;10657;51.276;6.390;2024-03-23T10:48:41;7.10;;;1.40;;
20997;SDS011;10657;51.276;6.390;2024-03-23T10:51:08;2.88;;;0.88;;
20997;SDS011;10657;51.276;6.390;2024-03-23T10:53:35;3.25;;;0.90;;
20997;SDS011;10657;51.276;6.390;2024-03-23T10:56:04;3.60;;;0.90;;
20997;SDS011;10657;51.276;6.390;2024-03-23T10:58:39;3.47;;;1.10;;
20997;SDS011;10657;51.276;6.390;2024-03-23T11:01:10;6.75;;;1.27;;
20997;SDS011;10657;51.276;6.390;2024-03-23T11:03:38;6.35;;;1.50;;
20997;SDS011;10657;51.276;6.390;2024-03-23T11:06:09;4.32;;;1.17;;
20997;SDS011;10657;51.276;6.390;2024-03-23T11:08:44;6.05;;;1.65;;
20997;SDS011;10657;51.276;6.390;2024-03-23T11:11:21;6.03;;;1.77;;
20997;SDS011;10657;51.276;6.390;2024-03-23T11:13:48;10.50;;;2.13;;
20997;SDS011;10657;51.276;6.390;2024-03-23T11:16:22;4.90;;;1.70;;
20997;SDS011;10657;51.276;6.390;2024-03-23T11:18:50;7.85;;;2.45;;
20997;SDS011;10657;51.276;6.390;2024-03-23T11:24:16;11.82;;;1.98;;
20997;SDS011;10657;51.276;6.390;2024-03-23T11:26:43;9.30;;;2.50;;
20997;SDS011;10657;51.276;6.390;2024-03-23T11:29:10;6.78;;;2.17;;
20997;SDS011;10657;51.276;6.390;2024-03-23T11:31:37;4.57;;;1.05;;
20997;SDS011;10657;51.276;6.390;2024-03-23T11:34:06;3.25;;;0.77;;
20997;SDS011;10657;51.276;6.390;2024-03-23T11:36:32;4.93;;;1.40;;
20997;SDS011;10657;51.276;6.390;2024-03-23T11:39:11;4.05;;;0.80;;
20997;SDS011;10657;51.276;6.390;2024-03-23T11:41:55;4.88;;;1.17;;
20997;SDS011;10657;51.276;6.390;2024-03-23T11:44:22;5.88;;;1.30;;
20997;SDS011;10657;51.276;6.390;2024-03-23T11:46:50;4.63;;;1.35;;
20997;SDS011;10657;51.276;6.390;2024-03-23T11:49:20;4.75;;;1.40;;
20997;SDS011;10657;51.276;6.390;2024-03-23T11:51:49;6.60;;;1.92;;
20997;SDS011;10657;51.276;6.390;2024-03-23T11:54:16;7.50;;;2.08;;
20997;SDS011;10657;51.276;6.390;2024-03-23T11:56:55;8.07;;;2.25;;
20997;SDS011;10657;51.276;6.390;2024-03-23T11:59:38;9.75;;;2.53;;
20997;SDS011;10657;51.276;6.390;2024-03-23T12:02:10;9.40;;;2.50;;
20997;SDS011;10657;51.276;6.390;2024-03-23T12:04:37;8.65;;;2.72;;
20997;SDS011;10657;51.276;6.390;2024-03-23T12:09:35;7.13;;;2.55;;
20997;SDS011;10657;51.276;6.390;2024-03-23T12:12:08;6.72;;;2.25;;
20997;SDS011;10657;51.276;6.390;2024-03-23T12:14:39;7.47;;;2.22;;
20997;SDS011;10657;51.276;6.390;2024-03-23T12:17:11;9.25;;;2.53;;
20997;SDS011;10657;51.276;6.390;2024-03-23T12:19:42;7.78;;;2.20;;
20997;SDS011;10657;51.276;6.390;2024-03-23T12:22:14;8.07;;;2.58;;
20997;SDS011;10657;51.276;6.390;2024-03-23T12:24:40;6.03;;;1.73;;
20997;SDS011;10657;51.276;6.390;2024-03-23T12:27:10;4.80;;;1.20;;
20997;SDS011;10657;51.276;6.390;2024-03-23T12:29:36;6.38;;;1.48;;
20997;SDS011;10657;51.276;6.390;2024-03-23T12:32:04;4.45;;;1.20;;
20997;SDS011;10657;51.276;6.390;2024-03-23T12:34:30;5.43;;;1.17;;
20997;SDS011;10657;51.276;6.390;2024-03-23T12:36:56;3.95;;;1.25;;
20997;SDS011;10657;51.276;6.390;2024-03-23T12:39:22;4.95;;;1.30;;
20997;SDS011;10657;51.276;6.390;2024-03-23T12:41:48;6.43;;;1.75;;
20997;SDS011;10657;51.276;6.390;2024-03-23T12:44:14;4.70;;;1.42;;
20997;SDS011;10657;51.276;6.390;2024-03-23T12:46:44;6.15;;;1.70;;
20997;SDS011;10657;51.276;6.390;2024-03-23T12:49:10;3.03;;;0.80;;
20997;SDS011;10657;51.276;6.390;2024-03-23T12:51:36;4.10;;;0.60;;
20997;SDS011;10657;51.276;6.390;2024-03-23T12:54:02;4.22;;;0.80;;
20997;SDS011;10657;51.276;6.390;2024-03-23T12:56:28;6.97;;;1.08;;
20997;SDS011;10657;51.276;6.390;2024-03-23T12:58:55;5.45;;;0.95;;
20997;SDS011;10657;51.276;6.390;2024-03-23T13:01:25;4.32;;;0.90;;
20997;SDS011;10657;51.276;6.390;2024-03-23T13:03:52;2.70;;;0.82;;
20997;SDS011;10657;51.276;6.390;2024-03-23T13:06:18;3.95;;;0.93;;
20997;SDS011;10657;51.276;6.390;2024-03-23T13:08:47;2.03;;;0.60;;
20997;SDS011;10657;51.276;6.390;2024-03-23T13:11:15;3.28;;;0.70;;
20997;SDS011;10657;51.276;6.390;2024-03-23T13:13:41;5.10;;;0.80;;
20997;SDS011;10657;51.276;6.390;2024-03-23T13:16:10;2.55;;;0.77;;
20997;SDS011;10657;51.276;6.390;2024-03-23T13:18:36;3.38;;;0.82;;
20997;SDS011;10657;51.276;6.390;2024-03-23T13:21:02;3.70;;;1.00;;
20997;SDS011;10657;51.276;6.390;2024-03-23T13:23:32;5.50;;;1.33;;
20997;SDS011;10657;51.276;6.390;2024-03-23T13:26:01;6.13;;;1.30;;
20997;SDS011;10657;51.276;6.390;2024-03-23T13:28:26;8.13;;;1.77;;
20997;SDS011;10657;51.276;6.390;2024-03-23T13:30:52;5.32;;;1.20;;
20997;SDS011;10657;51.276;6.390;2024-03-23T13:33:19;7.28;;;1.05;;
20997;SDS011;10657;51.276;6.390;2024-03-23T13:35:49;4.60;;;1.10;;
20997;SDS011;10657;51.276;6.390;2024-03-23T13:38:15;5.95;;;1.23;;
20997;SDS011;10657;51.276;6.390;2024-03-23T13:40:49;3.53;;;0.88;;
20997;SDS011;10657;51.276;6.390;2024-03-23T13:43:15;5.90;;;1.17;;
20997;SDS011;10657;51.276;6.390;2024-03-23T13:45:41;5.22;;;1.23;;
20997;SDS011;10657;51.276;6.390;2024-03-23T13:48:07;6.53;;;1.50;;
20997;SDS011;10657;51.276;6.390;2024-03-23T13:50:33;7.63;;;1.67;;
20997;SDS011;10657;51.276;6.390;2024-03-23T13:52:59;5.25;;;1.23;;
20997;SDS011;10657;51.276;6.390;2024-03-23T13:55:25;8.80;;;1.98;;
20997;SDS011;10657;51.276;6.390;2024-03-23T13:57:51;9.65;;;1.70;;
20997;SDS011;10657;51.276;6.390;2024-03-23T14:00:17;4.45;;;1.15;;
20997;SDS011;10657;51.276;6.390;2024-03-23T14:02:44;7.82;;;1.40;;
20997;SDS011;10657;51.276;6.390;2024-03-23T14:05:10;5.65;;;1.30;;
20997;SDS011;10657;51.276;6.390;2024-03-23T14:07:36;4.70;;;1.10;;
20997;SDS011;10657;51.276;6.390;2024-03-23T14:10:03;4.32;;;1.25;;
20997;SDS011;10657;51.276;6.390;2024-03-23T14:12:31;4.72;;;1.30;;
20997;SDS011;10657;51.276;6.390;2024-03-23T14:15:00;4.53;;;1.13;;
20997;SDS011;10657;51.276;6.390;2024-03-23T14:17:31;4.93;;;1.08;;
20997;SDS011;10657;51.276;6.390;2024-03-23T14:19:56;3.15;;;1.10;;
20997;SDS011;10657;51.276;6.390;2024-03-23T14:22:26;4.72;;;1.30;;
20997;SDS011;10657;51.276;6.390;2024-03-23T14:24:53;5.68;;;1.20;;
20997;SDS011;10657;51.276;6.390;2024-03-23T14:27:19;4.95;;;1.10;;
20997;SDS011;10657;51.276;6.390;2024-03-23T14:29:46;3.15;;;1.00;;
20997;SDS011;10657;51.276;6.390;2024-03-23T14:32:13;4.95;;;1.40;;
20997;SDS011;10657;51.276;6.390;2024-03-23T14:34:40;4.65;;;1.30;;
20997;SDS011;10657;51.276;6.390;2024-03-23T14:37:06;5.20;;;1.55;;
20997;SDS011;10657;51.276;6.390;2024-03-23T14:39:32;8.27;;;1.40;;
20997;SDS011;10657;51.276;6.390;2024-03-23T14:42:01;5.90;;;1.92;;
20997;SDS011;10657;51.276;6.390;2024-03-23T14:44:30;4.93;;;1.88;;
20997;SDS011;10657;51.276;6.390;2024-03-23T14:46:56;7.30;;;2.30;;
20997;SDS011;10657;51.276;6.390;2024-03-23T14:49:22;5.97;;;1.58;;
20997;SDS011;10657;51.276;6.390;2024-03-23T14:51:48;4.45;;;1.40;;
20997;SDS011;10657;51.276;6.390;2024-03-23T14:54:16;7.88;;;1.55;;
20997;SDS011;10657;51.276;6.390;2024-03-23T14:56:42;3.03;;;0.85;;
20997;SDS011;10657;51.276;6.390;2024-03-23T14:59:12;4.80;;;1.40;;
20997;SDS011;10657;51.276;6.390;2024-03-23T15:01:38;5.45;;;1.42;;
20997;SDS011;10657;51.276;6.390;2024-03-23T15:04:04;7.97;;;1.80;;
20997;SDS011;10657;51.276;6.390;2024-03-23T15:06:30;7.38;;;1.92;;
20997;SDS011;10657;51.276;6.390;2024-03-23T15:08:56;5.63;;;1.40;;
20997;SDS011;10657;51.276;6.390;2024-03-23T15:11:21;5.55;;;1.38;;
20997;SDS011;10657;51.276;6.390;2024-03-23T15:13:49;4.38;;;1.40;;
20997;SDS011;10657;51.276;6.390;2024-03-23T15:16:18;5.55;;;1.80;;
20997;SDS011;10657;51.276;6.390;2024-03-23T15:18:45;5.63;;;1.50;;
20997;SDS011;10657;51.276;6.390;2024-03-23T15:21:11;6.55;;;1.30;;
20997;SDS011;10657;51.276;6.390;2024-03-23T15:23:37;5.65;;;1.40;;
20997;SDS011;10657;51.276;6.390;2024-03-23T15:26:03;3.90;;;1.02;;
20997;SDS011;10657;51.276;6.390;2024-03-23T15:28:31;4.53;;;1.13;;
20997;SDS011;10657;51.276;6.390;2024-03-23T15:31:04;4.18;;;1.00;;
20997;SDS011;10657;51.276;6.390;2024-03-23T15:33:30;4.63;;;0.90;;
20997;SDS011;10657;51.276;6.390;2024-03-23T15:35:59;6.95;;;1.00;;
20997;SDS011;10657;51.276;6.390;2024-03-23T15:38:25;3.15;;;0.88;;
20997;SDS011;10657;51.276;6.390;2024-03-23T15:40:54;3.80;;;1.10;;
20997;SDS011;10657;51.276;6.390;2024-03-23T15:43:20;3.35;;;0.90;;
20997;SDS011;10657;51.276;6.390;2024-03-23T15:45:59;3.03;;;0.70;;
20997;SDS011;10657;51.276;6.390;2024-03-23T15:48:26;2.75;;;0.60;;